sensor_id;sensor_type;location;lat;lon;timestamp;pressure;altitude;pressure_sealevel;temperature;humidity
49943;BME280;36011;53.362;58.948;2023-07-28T00:02:17;96302.13;;;21.29;56.68
49943;BME280;36011;53.362;58.948;2023-07-28T00:05:18;96297.94;;;21.26;57.05
49943;BME280;36011;53.362;58.948;2023-07-28T00:08:19;96294.88;;;21.15;57.26
49943;BME280;36011;53.362;58.948;2023-07-28T00:11:22;96298.91;;;21.11;57.30
49943;BME280;36011;53.362;58.948;2023-07-28T00:14:23;96304.97;;;21.04;57.37
49943;BME280;36011;53.362;58.948;2023-07-28T00:17:27;96304.88;;;20.98;57.37
49943;BME280;36011;53.362;58.948;2023-07-28T00:20:33;96302.34;;;20.96;57.79
49943;BME280;36011;53.362;58.948;2023-07-28T00:23:37;96302.00;;;20.99;57.59
49943;BME280;36011;53.362;58.948;2023-07-28T00:26:40;96301.94;;;21.07;57.03
49943;BME280;36011;53.362;58.948;2023-07-28T00:29:42;96303.53;;;21.17;57.31
49943;BME280;36011;53.362;58.948;2023-07-28T00:32:46;96302.91;;;21.15;57.24
49943;BME280;36011;53.362;58.948;2023-07-28T00:35:49;96305.91;;;21.12;57.41
49943;BME280;36011;53.362;58.948;2023-07-28T00:38:51;96310.63;;;21.10;57.38
49943;BME280;36011;53.362;58.948;2023-07-28T00:41:54;96303.44;;;21.10;57.38
49943;BME280;36011;53.362;58.948;2023-07-28T00:44:57;96300.22;;;21.15;56.69
49943;BME280;36011;53.362;58.948;2023-07-28T00:48:01;96307.69;;;21.19;56.78
49943;BME280;36011;53.362;58.948;2023-07-28T00:51:05;96305.97;;;21.26;56.66
49943;BME280;36011;53.362;58.948;2023-07-28T00:54:08;96307.56;;;21.36;56.24
49943;BME280;36011;53.362;58.948;2023-07-28T00:57:12;96302.84;;;21.46;56.30
49943;BME280;36011;53.362;58.948;2023-07-28T01:00:13;96304.13;;;21.50;56.36
49943;BME280;36011;53.362;58.948;2023-07-28T01:03:17;96304.94;;;21.50;56.28
49943;BME280;36011;53.362;58.948;2023-07-28T01:09:51;96307.91;;;21.56;56.24
49943;BME280;36011;53.362;58.948;2023-07-28T01:12:57;96308.09;;;21.54;56.96
49943;BME280;36011;53.362;58.948;2023-07-28T01:16:00;96309.56;;;21.57;56.72
49943;BME280;36011;53.362;58.948;2023-07-28T01:19:04;96312.91;;;21.59;56.70
49943;BME280;36011;53.362;58.948;2023-07-28T01:25:24;96311.44;;;21.71;56.84
49943;BME280;36011;53.362;58.948;2023-07-28T01:28:29;96321.06;;;21.80;56.17
49943;BME280;36011;53.362;58.948;2023-07-28T01:31:31;96309.63;;;21.86;56.21
49943;BME280;36011;53.362;58.948;2023-07-28T01:34:35;96317.13;;;22.06;56.32
49943;BME280;36011;53.362;58.948;2023-07-28T01:37:38;96312.31;;;22.01;56.06
49943;BME280;36011;53.362;58.948;2023-07-28T01:40:42;96316.47;;;22.04;56.49
49943;BME280;36011;53.362;58.948;2023-07-28T01:43:48;96309.53;;;22.09;55.96
49943;BME280;36011;53.362;58.948;2023-07-28T01:46:52;96315.34;;;22.13;55.69
49943;BME280;36011;53.362;58.948;2023-07-28T01:49:55;96321.00;;;22.18;55.86
49943;BME280;36011;53.362;58.948;2023-07-28T01:52:58;96333.66;;;22.24;55.51
49943;BME280;36011;53.362;58.948;2023-07-28T01:56:02;96326.56;;;22.31;55.80
49943;BME280;36011;53.362;58.948;2023-07-28T01:59:06;96328.56;;;22.44;55.83
49943;BME280;36011;53.362;58.948;2023-07-28T02:02:12;96321.41;;;22.66;56.33
49943;BME280;36011;53.362;58.948;2023-07-28T02:05:17;96313.91;;;22.61;56.21
49943;BME280;36011;53.362;58.948;2023-07-28T02:08:21;96326.34;;;22.62;56.11
49943;BME280;36011;53.362;58.948;2023-07-28T02:11:25;96331.66;;;22.77;55.88
49943;BME280;36011;53.362;58.948;2023-07-28T02:14:31;96333.28;;;22.93;55.75
49943;BME280;36011;53.362;58.948;2023-07-28T02:17:32;96330.03;;;22.98;55.71
49943;BME280;36011;53.362;58.948;2023-07-28T02:20:35;96333.13;;;23.16;55.38
49943;BME280;36011;53.362;58.948;2023-07-28T02:23:39;96330.19;;;23.33;55.28
49943;BME280;36011;53.362;58.948;2023-07-28T02:26:43;96329.16;;;23.34;55.16
49943;BME280;36011;53.362;58.948;2023-07-28T02:29:48;96331.19;;;23.31;55.31
49943;BME280;36011;53.362;58.948;2023-07-28T02:32:52;96331.47;;;23.37;55.11
49943;BME280;36011;53.362;58.948;2023-07-28T02:35:56;96332.19;;;23.52;54.93
49943;BME280;36011;53.362;58.948;2023-07-28T02:38:57;96321.19;;;23.68;54.88
49943;BME280;36011;53.362;58.948;2023-07-28T02:42:00;96323.63;;;23.63;55.01
49943;BME280;36011;53.362;58.948;2023-07-28T02:45:04;96319.72;;;23.66;55.19
49943;BME280;36011;53.362;58.948;2023-07-28T02:48:08;96326.19;;;23.71;55.10
49943;BME280;36011;53.362;58.948;2023-07-28T02:51:11;96333.06;;;23.81;55.28
49943;BME280;36011;53.362;58.948;2023-07-28T02:54:15;96330.25;;;23.89;54.65
49943;BME280;36011;53.362;58.948;2023-07-28T02:57:18;96337.53;;;23.95;54.45
49943;BME280;36011;53.362;58.948;2023-07-28T03:00:24;96332.03;;;24.10;54.61
49943;BME280;36011;53.362;58.948;2023-07-28T03:03:25;96338.09;;;24.18;54.48
49943;BME280;36011;53.362;58.948;2023-07-28T03:06:27;96329.88;;;24.27;54.09
49943;BME280;36011;53.362;58.948;2023-07-28T03:09:28;96338.25;;;24.45;53.55
49943;BME280;36011;53.362;58.948;2023-07-28T03:12:30;96345.66;;;24.78;53.87
49943;BME280;36011;53.362;58.948;2023-07-28T03:15:31;96354.16;;;24.88;53.60
49943;BME280;36011;53.362;58.948;2023-07-28T03:18:34;96354.19;;;24.95;53.34
49943;BME280;36011;53.362;58.948;2023-07-28T03:21:40;96354.19;;;25.01;53.23
49943;BME280;36011;53.362;58.948;2023-07-28T03:24:45;96358.84;;;25.21;52.99
49943;BME280;36011;53.362;58.948;2023-07-28T03:27:50;96355.16;;;25.62;52.27
49943;BME280;36011;53.362;58.948;2023-07-28T03:30:53;96354.31;;;26.21;51.03
49943;BME280;36011;53.362;58.948;2023-07-28T03:33:54;96353.84;;;26.64;50.07
49943;BME280;36011;53.362;58.948;2023-07-28T03:36:57;96353.59;;;27.17;48.92
49943;BME280;36011;53.362;58.948;2023-07-28T03:40:00;96347.78;;;27.45;48.67
49943;BME280;36011;53.362;58.948;2023-07-28T03:43:01;96352.47;;;27.63;47.93
49943;BME280;36011;53.362;58.948;2023-07-28T03:46:07;96355.47;;;27.73;47.98
49943;BME280;36011;53.362;58.948;2023-07-28T03:49:16;96351.94;;;27.80;47.88
49943;BME280;36011;53.362;58.948;2023-07-28T03:52:20;96361.47;;;27.82;47.91
49943;BME280;36011;53.362;58.948;2023-07-28T03:55:23;96364.16;;;28.07;47.22
49943;BME280;36011;53.362;58.948;2023-07-28T03:58:27;96378.56;;;28.51;46.46
49943;BME280;36011;53.362;58.948;2023-07-28T04:01:30;96366.28;;;28.85;45.41
49943;BME280;36011;53.362;58.948;2023-07-28T04:04:38;96381.06;;;29.01;44.47
49943;BME280;36011;53.362;58.948;2023-07-28T04:07:40;96394.09;;;28.93;44.20
49943;BME280;36011;53.362;58.948;2023-07-28T04:10:48;96402.63;;;28.59;44.03
49943;BME280;36011;53.362;58.948;2023-07-28T04:13:51;96404.63;;;28.20;44.69
49943;BME280;36011;53.362;58.948;2023-07-28T04:16:52;96415.75;;;27.49;47.59
49943;BME280;36011;53.362;58.948;2023-07-28T04:19:56;96407.63;;;25.92;50.04
49943;BME280;36011;53.362;58.948;2023-07-28T04:22:57;96403.63;;;24.87;53.04
49943;BME280;36011;53.362;58.948;2023-07-28T04:26:01;96412.00;;;24.57;53.62
49943;BME280;36011;53.362;58.948;2023-07-28T04:29:02;96412.69;;;24.73;54.21
49943;BME280;36011;53.362;58.948;2023-07-28T04:32:03;96415.03;;;24.89;54.06
49943;BME280;36011;53.362;58.948;2023-07-28T04:35:04;96419.31;;;25.18;53.97
49943;BME280;36011;53.362;58.948;2023-07-28T04:38:08;96407.94;;;25.23;53.16
49943;BME280;36011;53.362;58.948;2023-07-28T04:41:12;96412.28;;;25.24;54.40
49943;BME280;36011;53.362;58.948;2023-07-28T04:44:13;96416.56;;;25.12;54.77
49943;BME280;36011;53.362;58.948;2023-07-28T04:47:22;96419.19;;;24.98;55.44
49943;BME280;36011;53.362;58.948;2023-07-28T04:50:28;96418.28;;;24.78;56.34
49943;BME280;36011;53.362;58.948;2023-07-28T04:53:31;96414.44;;;24.52;58.27
49943;BME280;36011;53.362;58.948;2023-07-28T04:56:35;96401.19;;;24.51;57.44
49943;BME280;36011;53.362;58.948;2023-07-28T04:59:38;96399.69;;;24.83;57.09
49943;BME280;36011;53.362;58.948;2023-07-28T05:02:42;96404.44;;;25.29;56.47
49943;BME280;36011;53.362;58.948;2023-07-28T05:05:46;96406.56;;;25.60;55.29
49943;BME280;36011;53.362;58.948;2023-07-28T05:08:49;96410.34;;;25.92;54.99
49943;BME280;36011;53.362;58.948;2023-07-28T05:11:55;96402.81;;;26.48;54.10
49943;BME280;36011;53.362;58.948;2023-07-28T05:14:56;96412.00;;;27.50;52.18
49943;BME280;36011;53.362;58.948;2023-07-28T05:18:00;96420.41;;;28.24;50.48
49943;BME280;36011;53.362;58.948;2023-07-28T05:21:03;96415.06;;;28.42;49.72
49943;BME280;36011;53.362;58.948;2023-07-28T05:24:05;96402.84;;;28.58;49.43
49943;BME280;36011;53.362;58.948;2023-07-28T05:27:10;96415.91;;;30.07;46.68
49943;BME280;36011;53.362;58.948;2023-07-28T05:30:16;96403.19;;;30.42;44.75
49943;BME280;36011;53.362;58.948;2023-07-28T05:33:22;96409.28;;;30.03;45.50
49943;BME280;36011;53.362;58.948;2023-07-28T05:36:24;96400.88;;;29.20;46.88
49943;BME280;36011;53.362;58.948;2023-07-28T05:39:25;96387.03;;;27.54;50.31
49943;BME280;36011;53.362;58.948;2023-07-28T05:42:30;96401.19;;;26.07;53.67
49943;BME280;36011;53.362;58.948;2023-07-28T05:45:36;96400.28;;;25.26;55.62
49943;BME280;36011;53.362;58.948;2023-07-28T05:48:39;96414.81;;;24.91;56.57
49943;BME280;36011;53.362;58.948;2023-07-28T05:51:40;96407.09;;;24.74;57.17
49943;BME280;36011;53.362;58.948;2023-07-28T05:54:44;96393.97;;;24.58;57.55
49943;BME280;36011;53.362;58.948;2023-07-28T05:57:48;96388.94;;;24.83;57.40
49943;BME280;36011;53.362;58.948;2023-07-28T06:00:49;96385.56;;;25.29;56.51
49943;BME280;36011;53.362;58.948;2023-07-28T06:03:50;96387.94;;;26.05;54.80
49943;BME280;36011;53.362;58.948;2023-07-28T06:06:52;96380.75;;;26.77;53.42
49943;BME280;36011;53.362;58.948;2023-07-28T06:09:56;96383.63;;;27.34;51.89
49943;BME280;36011;53.362;58.948;2023-07-28T06:12:59;96396.75;;;28.62;49.89
49943;BME280;36011;53.362;58.948;2023-07-28T06:16:02;96387.78;;;29.89;47.40
49943;BME280;36011;53.362;58.948;2023-07-28T06:19:06;96407.03;;;31.46;44.63
49943;BME280;36011;53.362;58.948;2023-07-28T06:22:11;96413.38;;;32.64;43.09
49943;BME280;36011;53.362;58.948;2023-07-28T06:25:14;96406.22;;;33.19;40.65
49943;BME280;36011;53.362;58.948;2023-07-28T06:28:18;96409.81;;;33.25;41.58
49943;BME280;36011;53.362;58.948;2023-07-28T06:31:19;96407.78;;;33.59;40.44
49943;BME280;36011;53.362;58.948;2023-07-28T06:34:25;96417.63;;;33.38;40.82
49943;BME280;36011;53.362;58.948;2023-07-28T06:37:29;96420.69;;;32.81;41.02
49943;BME280;36011;53.362;58.948;2023-07-28T06:40:32;96415.31;;;32.47;41.13
49943;BME280;36011;53.362;58.948;2023-07-28T06:43:36;96407.63;;;31.93;41.39
49943;BME280;36011;53.362;58.948;2023-07-28T06:46:39;96403.66;;;32.01;40.78
49943;BME280;36011;53.362;58.948;2023-07-28T06:49:43;96402.00;;;32.34;39.79
49943;BME280;36011;53.362;58.948;2023-07-28T06:52:49;96389.00;;;32.97;39.10
49943;BME280;36011;53.362;58.948;2023-07-28T06:55:55;96396.28;;;35.01;36.77
49943;BME280;36011;53.362;58.948;2023-07-28T06:58:59;96401.03;;;38.78;31.03
49943;BME280;36011;53.362;58.948;2023-07-28T07:02:03;96405.88;;;41.86;27.79
49943;BME280;36011;53.362;58.948;2023-07-28T07:05:04;96398.06;;;43.76;23.87
49943;BME280;36011;53.362;58.948;2023-07-28T07:08:05;96396.94;;;45.32;23.64
49943;BME280;36011;53.362;58.948;2023-07-28T07:11:09;96394.31;;;47.72;21.79
49943;BME280;36011;53.362;58.948;2023-07-28T07:14:20;96400.41;;;49.53;19.58
49943;BME280;36011;53.362;58.948;2023-07-28T07:17:24;96389.19;;;49.34;18.71
49943;BME280;36011;53.362;58.948;2023-07-28T07:20:25;96378.78;;;47.58;19.87
49943;BME280;36011;53.362;58.948;2023-07-28T07:23:29;96368.03;;;45.24;20.70
49943;BME280;36011;53.362;58.948;2023-07-28T07:26:30;96358.22;;;43.37;22.99
49943;BME280;36011;53.362;58.948;2023-07-28T07:29:38;96365.38;;;42.80;23.56
49943;BME280;36011;53.362;58.948;2023-07-28T07:32:42;96364.66;;;44.07;21.69
49943;BME280;36011;53.362;58.948;2023-07-28T07:35:44;96361.75;;;44.68;21.88
49943;BME280;36011;53.362;58.948;2023-07-28T07:38:47;96367.72;;;45.76;21.02
49943;BME280;36011;53.362;58.948;2023-07-28T07:41:55;96372.75;;;47.19;18.63
49943;BME280;36011;53.362;58.948;2023-07-28T07:44:59;96360.28;;;48.06;18.30
49943;BME280;36011;53.362;58.948;2023-07-28T07:48:02;96355.13;;;48.81;17.41
49943;BME280;36011;53.362;58.948;2023-07-28T07:51:04;96366.47;;;48.72;16.47
49943;BME280;36011;53.362;58.948;2023-07-28T07:54:08;96377.41;;;48.33;16.73
49943;BME280;36011;53.362;58.948;2023-07-28T07:57:10;96368.41;;;48.11;17.41
49943;BME280;36011;53.362;58.948;2023-07-28T08:00:11;96364.31;;;48.65;16.88
49943;BME280;36011;53.362;58.948;2023-07-28T08:03:13;96359.03;;;48.76;16.94
49943;BME280;36011;53.362;58.948;2023-07-28T08:06:17;96351.03;;;48.90;17.28
49943;BME280;36011;53.362;58.948;2023-07-28T08:09:19;96333.25;;;49.50;16.32
49943;BME280;36011;53.362;58.948;2023-07-28T08:12:23;96339.38;;;49.55;15.74
49943;BME280;36011;53.362;58.948;2023-07-28T08:15:29;96332.22;;;49.38;16.17
49943;BME280;36011;53.362;58.948;2023-07-28T08:18:35;96335.06;;;49.77;15.74
49943;BME280;36011;53.362;58.948;2023-07-28T08:21:41;96334.91;;;49.70;15.59
49943;BME280;36011;53.362;58.948;2023-07-28T08:24:45;96338.25;;;49.40;15.52
49943;BME280;36011;53.362;58.948;2023-07-28T08:27:49;96319.72;;;47.81;16.61
49943;BME280;36011;53.362;58.948;2023-07-28T08:30:54;96312.59;;;46.32;17.56
49943;BME280;36011;53.362;58.948;2023-07-28T08:33:58;96315.75;;;46.10;18.06
49943;BME280;36011;53.362;58.948;2023-07-28T08:37:05;96301.88;;;46.80;17.16
49943;BME280;36011;53.362;58.948;2023-07-28T08:40:12;96291.25;;;45.28;18.35
49943;BME280;36011;53.362;58.948;2023-07-28T08:43:18;96302.69;;;45.47;18.17
49943;BME280;36011;53.362;58.948;2023-07-28T08:46:22;96307.34;;;45.98;17.98
49943;BME280;36011;53.362;58.948;2023-07-28T08:49:26;96295.03;;;46.77;17.78
49943;BME280;36011;53.362;58.948;2023-07-28T08:52:33;96305.66;;;47.49;16.83
49943;BME280;36011;53.362;58.948;2023-07-28T08:55:40;96309.63;;;48.04;16.59
49943;BME280;36011;53.362;58.948;2023-07-28T08:58:42;96306.25;;;47.83;16.39
49943;BME280;36011;53.362;58.948;2023-07-28T09:01:45;96300.78;;;46.35;17.40
49943;BME280;36011;53.362;58.948;2023-07-28T09:04:50;96295.47;;;43.06;20.41
49943;BME280;36011;53.362;58.948;2023-07-28T09:07:52;96268.63;;;40.59;22.89
49943;BME280;36011;53.362;58.948;2023-07-28T09:10:55;96272.03;;;39.95;23.60
49943;BME280;36011;53.362;58.948;2023-07-28T09:14:03;96278.53;;;40.32;23.57
49943;BME280;36011;53.362;58.948;2023-07-28T09:17:14;96278.44;;;40.24;23.63
49943;BME280;36011;53.362;58.948;2023-07-28T09:20:16;96271.97;;;40.14;23.53
49943;BME280;36011;53.362;58.948;2023-07-28T09:23:18;96279.66;;;40.59;22.90
49943;BME280;36011;53.362;58.948;2023-07-28T09:26:40;96265.97;;;41.09;22.36
49943;BME280;36011;53.362;58.948;2023-07-28T09:29:47;96264.06;;;40.68;22.65
49943;BME280;36011;53.362;58.948;2023-07-28T09:32:52;96266.06;;;39.56;23.89
49943;BME280;36011;53.362;58.948;2023-07-28T09:35:56;96241.69;;;38.68;24.65
49943;BME280;36011;53.362;58.948;2023-07-28T09:38:58;96245.16;;;38.02;25.47
49943;BME280;36011;53.362;58.948;2023-07-28T09:42:01;96253.22;;;38.22;26.02
49943;BME280;36011;53.362;58.948;2023-07-28T09:45:06;96254.03;;;38.47;25.17
49943;BME280;36011;53.362;58.948;2023-07-28T09:48:09;96244.78;;;37.45;26.01
49943;BME280;36011;53.362;58.948;2023-07-28T09:51:17;96244.81;;;37.00;26.90
49943;BME280;36011;53.362;58.948;2023-07-28T09:54:24;96247.72;;;36.75;27.18
49943;BME280;36011;53.362;58.948;2023-07-28T09:57:33;96239.75;;;36.73;26.95
49943;BME280;36011;53.362;58.948;2023-07-28T10:00:39;96241.28;;;38.08;25.80
49943;BME280;36011;53.362;58.948;2023-07-28T10:03:43;96248.81;;;39.50;22.64
49943;BME280;36011;53.362;58.948;2023-07-28T10:06:46;96248.72;;;40.48;21.01
49943;BME280;36011;53.362;58.948;2023-07-28T10:09:50;96239.94;;;41.24;20.43
49943;BME280;36011;53.362;58.948;2023-07-28T10:12:54;96234.16;;;42.24;19.43
49943;BME280;36011;53.362;58.948;2023-07-28T10:16:01;96238.66;;;43.52;18.40
49943;BME280;36011;53.362;58.948;2023-07-28T10:19:04;96238.91;;;44.11;17.12
49943;BME280;36011;53.362;58.948;2023-07-28T10:22:09;96234.31;;;44.15;16.90
49943;BME280;36011;53.362;58.948;2023-07-28T10:25:13;96237.47;;;44.05;16.82
49943;BME280;36011;53.362;58.948;2023-07-28T10:31:37;96222.88;;;42.52;17.24
49943;BME280;36011;53.362;58.948;2023-07-28T10:34:41;96220.28;;;42.15;17.98
49943;BME280;36011;53.362;58.948;2023-07-28T10:37:43;96234.72;;;41.59;18.56
49943;BME280;36011;53.362;58.948;2023-07-28T10:40:53;96219.28;;;40.85;18.59
49943;BME280;36011;53.362;58.948;2023-07-28T10:43:54;96212.53;;;40.91;18.43
49943;BME280;36011;53.362;58.948;2023-07-28T10:46:55;96219.94;;;41.04;18.32
49943;BME280;36011;53.362;58.948;2023-07-28T10:49:56;96219.38;;;41.30;17.98
49943;BME280;36011;53.362;58.948;2023-07-28T10:53:00;96210.72;;;41.45;17.85
49943;BME280;36011;53.362;58.948;2023-07-28T10:56:03;96201.03;;;41.48;17.49
49943;BME280;36011;53.362;58.948;2023-07-28T10:59:05;96195.78;;;41.24;18.18
49943;BME280;36011;53.362;58.948;2023-07-28T11:02:09;96192.16;;;41.37;18.17
49943;BME280;36011;53.362;58.948;2023-07-28T11:05:33;96202.81;;;41.30;18.28
49943;BME280;36011;53.362;58.948;2023-07-28T11:08:34;96193.03;;;41.24;17.87
49943;BME280;36011;53.362;58.948;2023-07-28T11:11:38;96189.09;;;40.52;17.63
49943;BME280;36011;53.362;58.948;2023-07-28T11:14:40;96197.59;;;39.49;18.71
49943;BME280;36011;53.362;58.948;2023-07-28T11:17:47;96186.47;;;38.83;20.08
49943;BME280;36011;53.362;58.948;2023-07-28T11:20:50;96186.31;;;38.75;20.19
49943;BME280;36011;53.362;58.948;2023-07-28T11:23:54;96185.03;;;38.48;20.57
49943;BME280;36011;53.362;58.948;2023-07-28T11:26:59;96188.88;;;38.47;20.67
49943;BME280;36011;53.362;58.948;2023-07-28T11:30:08;96183.69;;;38.89;19.44
49943;BME280;36011;53.362;58.948;2023-07-28T11:33:14;96186.44;;;38.46;19.99
49943;BME280;36011;53.362;58.948;2023-07-28T11:36:39;96187.25;;;37.98;19.67
49943;BME280;36011;53.362;58.948;2023-07-28T11:39:39;96181.22;;;37.67;20.19
49943;BME280;36011;53.362;58.948;2023-07-28T11:42:47;96185.91;;;37.32;20.79
49943;BME280;36011;53.362;58.948;2023-07-28T11:45:51;96175.53;;;37.29;20.72
49943;BME280;36011;53.362;58.948;2023-07-28T11:48:53;96177.34;;;36.99;21.81
49943;BME280;36011;53.362;58.948;2023-07-28T11:51:59;96183.34;;;36.62;22.08
49943;BME280;36011;53.362;58.948;2023-07-28T11:55:06;96166.09;;;36.61;22.18
49943;BME280;36011;53.362;58.948;2023-07-28T11:58:10;96176.16;;;36.06;22.15
49943;BME280;36011;53.362;58.948;2023-07-28T12:01:13;96173.53;;;35.60;22.62
49943;BME280;36011;53.362;58.948;2023-07-28T12:07:51;96172.13;;;35.52;22.85
49943;BME280;36011;53.362;58.948;2023-07-28T12:10:55;96158.19;;;35.54;22.91
49943;BME280;36011;53.362;58.948;2023-07-28T12:13:59;96163.63;;;35.85;22.41
49943;BME280;36011;53.362;58.948;2023-07-28T12:17:03;96167.22;;;35.65;22.61
49943;BME280;36011;53.362;58.948;2023-07-28T12:20:09;96168.59;;;35.37;22.71
49943;BME280;36011;53.362;58.948;2023-07-28T12:23:22;96173.53;;;35.19;23.40
49943;BME280;36011;53.362;58.948;2023-07-28T12:26:23;96183.09;;;35.12;23.75
49943;BME280;36011;53.362;58.948;2023-07-28T12:29:27;96177.88;;;35.05;23.93
49943;BME280;36011;53.362;58.948;2023-07-28T12:32:28;96169.63;;;34.90;23.88
49943;BME280;36011;53.362;58.948;2023-07-28T12:35:30;96172.09;;;35.01;23.79
49943;BME280;36011;53.362;58.948;2023-07-28T12:38:32;96180.63;;;35.10;23.71
49943;BME280;36011;53.362;58.948;2023-07-28T12:41:36;96169.66;;;34.79;23.92
49943;BME280;36011;53.362;58.948;2023-07-28T12:44:38;96174.00;;;34.75;24.11
49943;BME280;36011;53.362;58.948;2023-07-28T12:47:42;96175.09;;;34.79;24.06
49943;BME280;36011;53.362;58.948;2023-07-28T12:50:46;96177.88;;;35.05;23.71
49943;BME280;36011;53.362;58.948;2023-07-28T12:53:50;96170.72;;;34.83;24.05
49943;BME280;36011;53.362;58.948;2023-07-28T12:56:53;96157.06;;;34.68;24.19
49943;BME280;36011;53.362;58.948;2023-07-28T12:59:57;96157.25;;;34.51;24.48
49943;BME280;36011;53.362;58.948;2023-07-28T13:03:03;96158.53;;;34.28;24.56
49943;BME280;36011;53.362;58.948;2023-07-28T13:06:07;96150.19;;;34.03;24.82
49943;BME280;36011;53.362;58.948;2023-07-28T13:09:08;96148.69;;;33.69;25.41
49943;BME280;36011;53.362;58.948;2023-07-28T13:12:09;96146.25;;;33.73;25.44
49943;BME280;36011;53.362;58.948;2023-07-28T13:15:13;96153.09;;;33.38;25.65
49943;BME280;36011;53.362;58.948;2023-07-28T13:18:20;96150.00;;;33.24;25.92
49943;BME280;36011;53.362;58.948;2023-07-28T13:21:31;96142.22;;;32.79;26.16
49943;BME280;36011;53.362;58.948;2023-07-28T13:24:34;96155.78;;;32.74;26.13
49943;BME280;36011;53.362;58.948;2023-07-28T13:27:36;96154.97;;;32.46;26.50
49943;BME280;36011;53.362;58.948;2023-07-28T13:30:40;96150.81;;;32.43;26.76
49943;BME280;36011;53.362;58.948;2023-07-28T13:33:44;96160.28;;;32.36;26.37
49943;BME280;36011;53.362;58.948;2023-07-28T13:36:48;96155.22;;;32.23;26.74
49943;BME280;36011;53.362;58.948;2023-07-28T13:39:50;96162.06;;;32.03;26.29
49943;BME280;36011;53.362;58.948;2023-07-28T13:42:55;96161.91;;;31.93;26.20
49943;BME280;36011;53.362;58.948;2023-07-28T13:45:57;96160.47;;;31.68;26.89
49943;BME280;36011;53.362;58.948;2023-07-28T13:49:00;96151.25;;;31.69;27.11
49943;BME280;36011;53.362;58.948;2023-07-28T13:52:04;96159.25;;;31.59;27.41
49943;BME280;36011;53.362;58.948;2023-07-28T13:55:05;96155.97;;;31.57;27.13
49943;BME280;36011;53.362;58.948;2023-07-28T13:58:14;96158.53;;;31.47;27.39
49943;BME280;36011;53.362;58.948;2023-07-28T14:01:20;96163.47;;;31.50;27.09
49943;BME280;36011;53.362;58.948;2023-07-28T14:04:21;96156.53;;;31.59;26.90
49943;BME280;36011;53.362;58.948;2023-07-28T14:07:27;96170.41;;;31.41;27.60
49943;BME280;36011;53.362;58.948;2023-07-28T14:10:30;96178.31;;;31.25;27.78
49943;BME280;36011;53.362;58.948;2023-07-28T14:13:33;96181.84;;;31.09;27.48
49943;BME280;36011;53.362;58.948;2023-07-28T14:16:36;96174.72;;;31.08;27.66
49943;BME280;36011;53.362;58.948;2023-07-28T14:19:38;96179.25;;;31.02;28.09
49943;BME280;36011;53.362;58.948;2023-07-28T14:22:42;96176.47;;;30.97;27.70
49943;BME280;36011;53.362;58.948;2023-07-28T14:25:46;96177.09;;;30.87;28.16
49943;BME280;36011;53.362;58.948;2023-07-28T14:28:47;96181.75;;;30.75;28.10
49943;BME280;36011;53.362;58.948;2023-07-28T14:31:48;96180.34;;;30.73;28.22
49943;BME280;36011;53.362;58.948;2023-07-28T14:34:52;96176.03;;;30.60;28.44
49943;BME280;36011;53.362;58.948;2023-07-28T14:37:54;96185.06;;;30.49;28.97
49943;BME280;36011;53.362;58.948;2023-07-28T14:40:57;96184.06;;;30.38;29.25
49943;BME280;36011;53.362;58.948;2023-07-28T14:43:58;96185.25;;;30.30;29.54
49943;BME280;36011;53.362;58.948;2023-07-28T14:46:59;96193.41;;;30.18;29.46
49943;BME280;36011;53.362;58.948;2023-07-28T14:50:02;96201.47;;;30.02;29.63
49943;BME280;36011;53.362;58.948;2023-07-28T14:53:14;96197.00;;;29.95;29.70
49943;BME280;36011;53.362;58.948;2023-07-28T14:56:25;96199.59;;;29.90;30.25
49943;BME280;36011;53.362;58.948;2023-07-28T14:59:28;96189.66;;;29.61;30.40
49943;BME280;36011;53.362;58.948;2023-07-28T15:02:33;96198.75;;;29.43;30.72
49943;BME280;36011;53.362;58.948;2023-07-28T15:05:38;96203.69;;;29.34;31.11
49943;BME280;36011;53.362;58.948;2023-07-28T15:08:44;96200.16;;;29.22;31.28
49943;BME280;36011;53.362;58.948;2023-07-28T15:11:47;96202.13;;;29.15;31.67
49943;BME280;36011;53.362;58.948;2023-07-28T15:14:48;96190.75;;;28.94;32.51
49943;BME280;36011;53.362;58.948;2023-07-28T15:17:51;96197.75;;;28.72;32.48
49943;BME280;36011;53.362;58.948;2023-07-28T15:20:58;96200.50;;;28.53;32.58
49943;BME280;36011;53.362;58.948;2023-07-28T15:24:03;96202.41;;;28.34;32.90
49943;BME280;36011;53.362;58.948;2023-07-28T15:27:04;96200.09;;;28.19;33.08
49943;BME280;36011;53.362;58.948;2023-07-28T15:30:08;96207.41;;;28.01;33.49
49943;BME280;36011;53.362;58.948;2023-07-28T15:33:10;96206.56;;;28.00;33.34
49943;BME280;36011;53.362;58.948;2023-07-28T15:36:12;96207.31;;;27.89;33.49
49943;BME280;36011;53.362;58.948;2023-07-28T15:39:15;96213.50;;;27.71;33.62
49943;BME280;36011;53.362;58.948;2023-07-28T15:42:19;96218.72;;;27.47;33.64
49943;BME280;36011;53.362;58.948;2023-07-28T15:45:21;96216.22;;;27.46;33.92
49943;BME280;36011;53.362;58.948;2023-07-28T15:48:25;96212.28;;;27.23;34.20
49943;BME280;36011;53.362;58.948;2023-07-28T15:51:28;96213.69;;;27.01;34.17
49943;BME280;36011;53.362;58.948;2023-07-28T15:54:29;96215.81;;;26.92;34.45
49943;BME280;36011;53.362;58.948;2023-07-28T15:57:31;96213.47;;;26.71;34.50
49943;BME280;36011;53.362;58.948;2023-07-28T16:00:32;96220.06;;;26.75;34.84
49943;BME280;36011;53.362;58.948;2023-07-28T16:03:36;96216.28;;;26.51;34.93
49943;BME280;36011;53.362;58.948;2023-07-28T16:06:40;96220.81;;;26.43;35.33
49943;BME280;36011;53.362;58.948;2023-07-28T16:09:41;96229.84;;;26.24;35.37
49943;BME280;36011;53.362;58.948;2023-07-28T16:12:47;96237.13;;;26.17;35.56
49943;BME280;36011;53.362;58.948;2023-07-28T16:15:53;96239.25;;;26.08;35.88